Grants, NM

8:28 AM MDT on July 12, 2014 (GMT -0600)
Albuquerque Double Eagle (KAEG) Elev 5837 ft | 35.15 °N, 106.79 °W | Change Station

Current weather conditions updated 39 minutes ago

Scattered Clouds
Scattered Clouds
66 °F
Feels Like 66 °F
N
6
Wind Variable Wind from Variable

Today is forecast to be Cooler than yesterday. Afternoon thunderstorms.

Today
High -- | Low -- °F
--% Chance of Precip.
Yesterday
High -- | Low -- °F
Precip. -- in
6:05 AM 8:27 PM
Full, 100% visible
Pressure 30.30 in
Visibility 10.0 miles
Clouds Scattered Clouds 10000 ft
Dew Point 57 °F
Humidity 73%
Rainfall 0.00 in
Snow Depth Not available.
UV 1 out of 12
Pollen 2.50 out of 12
Air Quality Not available.
Flu Activity Sporadic
METAR KAEG 121349Z VRB05KT 10SM SCT100 19/14 A3030

More Conditions Fewer Conditions

Pressure 30.30 in
Visibility 10.0 miles
Clouds Scattered Clouds 10000 ft
Dew Point 57 °F
Humidity 73%
Rainfall 0.00 in
Snow Depth Not available.
UV 1 out of 12
Pollen 2.50 out of 12
Air Quality Not available.
Flu Activity Sporadic
METAR KAEG 121349Z VRB05KT 10SM SCT100 19/14 A3030

More Conditions Fewer Conditions

10-Day Weather Forecast

Almanac

Astronomy

Jul. 12, 2014 Rise Set
Actual Time 6:05 AM MDT 8:27 PM MDT
Civil Twilight 5:36 AM MDT 8:57 PM MDT
Nautical Twilight 5:00 AM MDT 9:33 PM MDT
Astronomical Twilight 4:20 AM MDT 10:12 PM MDT
Moon 8:36 PM MDT 6:25 AM MDT
Length of Visible Light 15h 20m
Length of Day
14h 21m
Tomorrow will be 1m 0s shorter.
Full, 100% of the Moon is Illuminated
Today
Full
Jul 18
Last Quarter
Jul 26
New
Aug 3
First Quarter
Aug 10
Full

Today's Extremes

State Highs State Lows

Community

WunderPhotos

Upload Photos

1,732,842 photos uploaded!

WunderBlogs® & News

Nearby

Snow Depth

Station Depth Elevation
Rice Park 0 in 8460 ft
Bateman 0 in 9300 ft
Santa Fe 0 in 11445 ft
Chamita 0 in 8400 ft
Frisco Divide 0 in 8000 ft

Earthquake Activity

City Distance Mag. Time & Date
No recent earthquake activity has been reported nearby.
Minimum magnitude displayed is 2.5.

Coastal Water Temperatures

Place Temperature
No Stations Reporting

Nearby Weather Stations

Station Location Temp. Dew Point Humidity Wind Precip. Elev Updated Type
RAWS GRANTS NM, Grants, NM 50 °F 45 °F 82% ENE  at  1 mph 0.00 in / hr 8620 ft 7:16 AM MDT MADIS
RAWS BLUEWATER RIDGE NM, Prewitt, NM 57 °F 48 °F 73% ESE  at  2 mph 0.00 in / hr 8289 ft 7:05 AM MDT MADIS

Show More Stations Show Fewer Stations